createdAt,value
2019-03-25T00:01:30.626Z,1012.84
2019-03-25T00:02:30.542Z,1012.80
2019-03-25T00:04:23.403Z,1012.77
2019-03-25T00:05:23.278Z,1012.78
2019-03-25T00:07:16.145Z,1012.79
2019-03-25T00:08:16.403Z,1012.80
2019-03-25T00:10:09.078Z,1012.79
2019-03-25T00:11:08.794Z,1012.77
2019-03-25T00:13:02.088Z,1012.77
2019-03-25T00:14:01.752Z,1012.76
2019-03-25T00:15:56.478Z,1012.72
2019-03-25T00:16:54.370Z,1012.68
2019-03-25T00:18:48.247Z,1012.69
2019-03-25T00:19:48.126Z,1012.70
2019-03-25T00:21:41.542Z,1012.67
2019-03-25T00:22:40.999Z,1012.67
2019-03-25T00:24:38.601Z,1012.66
2019-03-25T00:25:33.636Z,1012.65
2019-03-25T00:28:26.300Z,1012.56
2019-03-25T00:30:19.751Z,1012.59
2019-03-25T00:31:19.180Z,1012.57
2019-03-25T00:33:11.959Z,1012.54
2019-03-25T00:34:11.845Z,1012.48
2019-03-25T00:36:04.777Z,1012.48
2019-03-25T00:37:04.659Z,1012.47
2019-03-25T00:38:57.525Z,1012.42
2019-03-25T00:39:57.360Z,1012.47
2019-03-25T00:41:50.234Z,1012.41
2019-03-25T00:42:50.188Z,1012.37
2019-03-25T00:44:43.229Z,1012.34
2019-03-25T00:45:43.047Z,1012.37
2019-03-25T00:47:35.859Z,1012.35
2019-03-25T00:48:35.892Z,1012.35
2019-03-25T00:50:28.789Z,1012.27
2019-03-25T00:51:28.540Z,1012.23
2019-03-25T00:53:21.493Z,1012.15
2019-03-25T00:54:21.394Z,1012.14
2019-03-25T00:56:14.367Z,1012.08
2019-03-25T00:57:14.132Z,1012.06
2019-03-25T00:59:07.274Z,1011.98
2019-03-25T01:00:06.996Z,1011.91
2019-03-25T01:01:59.829Z,1011.75
2019-03-25T01:02:59.721Z,1011.78
2019-03-25T01:04:52.552Z,1011.78
2019-03-25T01:05:52.548Z,1011.80
2019-03-25T01:07:45.200Z,1011.73
2019-03-25T01:08:45.150Z,1011.71
2019-03-25T01:10:39.224Z,1011.68
2019-03-25T01:11:48.717Z,1011.68
2019-03-25T01:13:32.040Z,1011.64
2019-03-25T01:14:31.895Z,1011.58
2019-03-25T01:16:25.615Z,1011.50
2019-03-25T01:17:24.599Z,1011.43
2019-03-25T01:19:17.599Z,1011.47
2019-03-25T01:20:17.445Z,1011.42
2019-03-25T01:22:10.516Z,1011.36
2019-03-25T01:23:10.454Z,1011.33
2019-03-25T01:25:03.785Z,1011.32
2019-03-25T01:26:03.188Z,1011.30
2019-03-25T01:27:56.681Z,1011.31
2019-03-25T01:28:55.962Z,1011.33
2019-03-25T01:30:48.770Z,1011.30
2019-03-25T01:31:48.752Z,1011.29
2019-03-25T01:33:41.665Z,1011.23
2019-03-25T01:34:41.579Z,1011.24
2019-03-25T01:36:34.516Z,1011.18
2019-03-25T01:37:34.244Z,1011.16
2019-03-25T01:39:27.098Z,1011.14
2019-03-25T01:40:26.968Z,1011.12
2019-03-25T01:42:19.790Z,1011.03
2019-03-25T01:43:19.665Z,1011.02
2019-03-25T01:45:12.653Z,1010.96
2019-03-25T01:46:12.398Z,1010.97
2019-03-25T01:48:05.334Z,1010.89
2019-03-25T01:49:05.154Z,1010.86
2019-03-25T01:50:58.190Z,1010.87
2019-03-25T01:51:58.074Z,1010.87
2019-03-25T01:53:51.042Z,1010.89
2019-03-25T01:56:30.011Z,1010.85
2019-03-25T01:57:29.941Z,1010.84
2019-03-25T01:59:22.687Z,1010.83
2019-03-25T02:00:22.650Z,1010.82
2019-03-25T02:02:15.457Z,1010.78
2019-03-25T02:03:15.399Z,1010.73
2019-03-25T02:05:08.152Z,1010.63
2019-03-25T02:06:08.116Z,1010.68
2019-03-25T02:08:00.888Z,1010.66
2019-03-25T02:09:00.756Z,1010.65
2019-03-25T02:10:53.542Z,1010.59
2019-03-25T02:11:53.450Z,1010.59
2019-03-25T02:13:46.222Z,1010.55
2019-03-25T02:14:46.154Z,1010.55
2019-03-25T02:16:38.939Z,1010.54
2019-03-25T02:17:38.861Z,1010.51
2019-03-25T02:19:31.639Z,1010.49
2019-03-25T02:20:31.558Z,1010.45
2019-03-25T02:22:24.336Z,1010.44
2019-03-25T02:23:24.247Z,1010.44
2019-03-25T02:25:25.191Z,1010.40
2019-03-25T02:26:16.983Z,1010.36
2019-03-25T02:28:10.616Z,1010.33
2019-03-25T02:29:10.554Z,1010.35
2019-03-25T02:31:03.344Z,1010.26
2019-03-25T02:32:03.255Z,1010.21
2019-03-25T02:33:56.048Z,1010.23
2019-03-25T02:34:55.982Z,1010.20
2019-03-25T02:36:48.774Z,1010.14
2019-03-25T02:37:48.685Z,1010.13
2019-03-25T02:39:41.463Z,1010.13
2019-03-25T02:40:41.385Z,1010.14
2019-03-25T02:42:34.198Z,1010.14
2019-03-25T02:43:34.107Z,1010.12
2019-03-25T02:45:26.876Z,1010.07
2019-03-25T02:46:26.804Z,1010.06
2019-03-25T02:48:19.627Z,1010.05
2019-03-25T02:49:19.516Z,1010.00
2019-03-25T02:51:12.315Z,1010.00
2019-03-25T02:52:12.307Z,1009.99
2019-03-25T02:54:05.014Z,1009.91
2019-03-25T02:55:05.184Z,1009.88
2019-03-25T02:56:57.753Z,1009.85
2019-03-25T02:57:57.631Z,1009.81
2019-03-25T02:59:50.563Z,1009.81
2019-03-25T03:00:50.358Z,1009.78
2019-03-25T03:02:43.153Z,1009.75
2019-03-25T03:03:43.069Z,1009.70
2019-03-25T03:05:35.838Z,1009.68
2019-03-25T03:06:35.779Z,1009.68
2019-03-25T03:08:28.565Z,1009.62
2019-03-25T03:09:28.464Z,1009.66
2019-03-25T03:11:21.426Z,1009.61
2019-03-25T03:12:21.352Z,1009.58
2019-03-25T03:14:15.531Z,1009.54
2019-03-25T03:15:14.049Z,1009.51
2019-03-25T03:17:06.868Z,1009.45
2019-03-25T03:18:06.779Z,1009.45
2019-03-25T03:19:59.567Z,1009.40
2019-03-25T03:20:59.487Z,1009.40
2019-03-25T03:22:52.269Z,1009.37
2019-03-25T03:23:52.168Z,1009.33
2019-03-25T03:25:56.187Z,1009.27
2019-03-25T03:26:44.856Z,1009.21
2019-03-25T03:28:37.687Z,1009.18
2019-03-25T03:29:37.571Z,1009.14
2019-03-25T03:31:30.483Z,1009.10
2019-03-25T03:32:30.255Z,1009.06
2019-03-25T03:34:23.012Z,1009.02
2019-03-25T03:35:23.006Z,1009.03
2019-03-25T03:37:15.847Z,1008.97
2019-03-25T03:38:15.751Z,1009.00
2019-03-25T03:40:08.543Z,1008.98
2019-03-25T03:41:08.462Z,1008.95
2019-03-25T03:43:01.232Z,1008.95
2019-03-25T03:44:01.164Z,1008.92
2019-03-25T03:45:54.064Z,1008.87
2019-03-25T03:46:54.001Z,1008.87
2019-03-25T03:48:46.864Z,1008.80
2019-03-25T03:49:46.767Z,1008.80
2019-03-25T03:51:39.524Z,1008.79
2019-03-25T03:52:39.407Z,1008.84
2019-03-25T03:54:33.196Z,1008.82
2019-03-25T03:55:33.152Z,1008.79
2019-03-25T03:57:25.884Z,1008.80
2019-03-25T03:58:25.815Z,1008.83
2019-03-25T04:00:18.654Z,1008.76
2019-03-25T04:01:18.590Z,1008.79
2019-03-25T04:03:11.421Z,1008.71
2019-03-25T04:04:11.345Z,1008.74
2019-03-25T04:06:04.148Z,1008.65
2019-03-25T04:07:04.027Z,1008.60
2019-03-25T04:08:56.852Z,1008.57
2019-03-25T04:09:56.772Z,1008.48
2019-03-25T04:11:49.532Z,1008.41
2019-03-25T04:12:49.476Z,1008.44
2019-03-25T04:14:42.432Z,1008.37
2019-03-25T04:15:42.289Z,1008.39
2019-03-25T04:17:35.140Z,1008.35
2019-03-25T04:18:35.096Z,1008.29
2019-03-25T04:20:27.876Z,1008.26
2019-03-25T04:21:27.797Z,1008.21
2019-03-25T04:23:20.658Z,1008.17
2019-03-25T04:24:20.532Z,1008.16
2019-03-25T04:26:27.587Z,1008.18
2019-03-25T04:27:13.177Z,1008.16
2019-03-25T04:29:05.991Z,1008.11
2019-03-25T04:30:05.881Z,1008.10
2019-03-25T04:31:58.695Z,1008.05
2019-03-25T04:32:58.580Z,1008.04
2019-03-25T04:34:51.756Z,1008.04
2019-03-25T04:35:51.340Z,1008.00
2019-03-25T04:37:44.236Z,1007.97
2019-03-25T04:38:44.150Z,1007.97
2019-03-25T04:40:37.120Z,1007.91
2019-03-25T04:41:36.879Z,1007.88
2019-03-25T04:43:29.608Z,1007.78
2019-03-25T04:44:29.539Z,1007.84
2019-03-25T04:46:22.293Z,1007.81
2019-03-25T04:47:22.230Z,1007.82
2019-03-25T04:49:15.088Z,1007.80
2019-03-25T04:50:15.039Z,1007.80
2019-03-25T04:52:07.867Z,1007.76
2019-03-25T04:53:08.025Z,1007.68
2019-03-25T04:55:00.631Z,1007.75
2019-03-25T04:56:00.569Z,1007.68
2019-03-25T04:57:53.616Z,1007.64
2019-03-25T04:58:53.700Z,1007.67
2019-03-25T05:00:46.335Z,1007.70
2019-03-25T05:01:46.269Z,1007.64
2019-03-25T05:03:39.229Z,1007.63
2019-03-25T05:04:38.953Z,1007.63
2019-03-25T05:06:31.862Z,1007.63
2019-03-25T05:07:31.655Z,1007.58
2019-03-25T05:09:24.445Z,1007.53
2019-03-25T05:10:24.562Z,1007.56
2019-03-25T05:12:17.192Z,1007.50
2019-03-25T05:13:17.085Z,1007.46
2019-03-25T05:15:09.833Z,1007.44
2019-03-25T05:16:09.753Z,1007.44
2019-03-25T05:18:02.565Z,1007.45
2019-03-25T05:19:02.504Z,1007.41
2019-03-25T05:20:55.250Z,1007.41
2019-03-25T05:21:55.171Z,1007.38
2019-03-25T05:23:47.970Z,1007.42
2019-03-25T05:24:47.883Z,1007.39
2019-03-25T05:26:50.490Z,1007.31
2019-03-25T05:27:40.605Z,1007.35
2019-03-25T05:29:33.550Z,1007.34
2019-03-25T05:30:33.688Z,1007.31
2019-03-25T05:32:26.275Z,1007.23
2019-03-25T05:33:26.191Z,1007.27
2019-03-25T05:35:19.144Z,1007.20
2019-03-25T05:36:18.946Z,1007.23
2019-03-25T05:38:11.920Z,1007.12
2019-03-25T05:39:11.778Z,1007.11
2019-03-25T05:41:04.531Z,1007.11
2019-03-25T05:42:04.448Z,1007.26
2019-03-25T05:43:57.260Z,1007.22
2019-03-25T05:44:57.348Z,1007.27
2019-03-25T05:46:50.047Z,1007.21
2019-03-25T05:47:49.859Z,1007.27
2019-03-25T05:49:42.719Z,1007.29
2019-03-25T05:50:42.692Z,1007.26
2019-03-25T05:52:35.464Z,1007.30
2019-03-25T05:53:35.461Z,1007.36
2019-03-25T05:55:28.216Z,1007.28
2019-03-25T05:56:28.080Z,1007.31
2019-03-25T05:58:20.920Z,1007.31
2019-03-25T05:59:20.807Z,1007.28
2019-03-25T06:01:13.595Z,1007.24
2019-03-25T06:02:13.512Z,1007.21
2019-03-25T06:04:06.441Z,1007.15
2019-03-25T06:05:06.500Z,1007.19
2019-03-25T06:06:59.224Z,1007.13
2019-03-25T06:07:59.142Z,1007.16
2019-03-25T06:09:52.086Z,1007.14
2019-03-25T06:10:51.854Z,1007.18
2019-03-25T06:12:44.884Z,1007.10
2019-03-25T06:13:44.823Z,1007.09
2019-03-25T06:15:37.696Z,1007.08
2019-03-25T06:16:37.624Z,1007.10
2019-03-25T06:18:30.512Z,1007.03
2019-03-25T06:19:30.402Z,1007.03
2019-03-25T06:21:23.416Z,1007.01
2019-03-25T06:22:23.353Z,1006.99
2019-03-25T06:24:16.253Z,1007.03
2019-03-25T06:25:16.148Z,1007.03
2019-03-25T06:27:14.137Z,1007.05
2019-03-25T06:28:09.101Z,1006.98
2019-03-25T06:30:01.965Z,1007.09
2019-03-25T06:31:01.722Z,1007.08
2019-03-25T06:32:54.551Z,1007.10
2019-03-25T06:33:54.424Z,1007.09
2019-03-25T06:35:47.417Z,1007.08
2019-03-25T06:36:47.229Z,1007.09
2019-03-25T06:38:40.496Z,1007.04
2019-03-25T06:39:40.421Z,1007.08
2019-03-25T06:41:33.250Z,1007.14
2019-03-25T06:42:33.106Z,1007.18
2019-03-25T06:44:25.933Z,1007.12
2019-03-25T06:45:25.802Z,1007.14
2019-03-25T06:47:18.615Z,1007.17
2019-03-25T06:48:18.557Z,1007.19
2019-03-25T06:50:11.414Z,1007.19
2019-03-25T06:51:11.223Z,1007.18
2019-03-25T06:53:04.576Z,1007.30
2019-03-25T06:54:03.993Z,1007.22
2019-03-25T06:55:57.460Z,1007.21
2019-03-25T06:56:57.025Z,1007.27
2019-03-25T06:58:49.661Z,1007.23
2019-03-25T06:59:49.595Z,1007.29
2019-03-25T07:01:42.395Z,1007.26
2019-03-25T07:02:42.403Z,1007.23
2019-03-25T07:04:35.056Z,1007.27
2019-03-25T07:05:34.987Z,1007.27
2019-03-25T07:07:27.798Z,1007.27
2019-03-25T07:08:27.708Z,1007.28
2019-03-25T07:10:20.522Z,1007.24
2019-03-25T07:11:20.424Z,1007.29
2019-03-25T07:13:13.174Z,1007.26
2019-03-25T07:14:13.095Z,1007.19
2019-03-25T07:16:05.918Z,1007.31
2019-03-25T07:17:06.057Z,1007.31
2019-03-25T07:18:58.645Z,1007.36
2019-03-25T07:19:58.565Z,1007.32
2019-03-25T07:21:51.355Z,1007.32
2019-03-25T07:22:51.285Z,1007.32
2019-03-25T07:24:44.095Z,1007.37
2019-03-25T07:25:43.943Z,1007.32
2019-03-25T07:27:37.426Z,1007.35
2019-03-25T07:28:38.667Z,1007.32
2019-03-25T07:30:29.531Z,1007.35
2019-03-25T07:31:29.453Z,1007.33
2019-03-25T07:33:22.234Z,1007.36
2019-03-25T07:34:22.201Z,1007.38
2019-03-25T07:36:15.267Z,1007.37
2019-03-25T07:37:14.886Z,1007.38
2019-03-25T07:39:07.867Z,1007.40
2019-03-25T07:40:07.576Z,1007.41
2019-03-25T07:42:00.696Z,1007.32
2019-03-25T07:43:00.592Z,1007.38
2019-03-25T07:44:53.397Z,1007.39
2019-03-25T07:45:53.304Z,1007.44
2019-03-25T07:47:46.084Z,1007.38
2019-03-25T07:48:46.361Z,1007.40
2019-03-25T07:50:39.698Z,1007.40
2019-03-25T07:51:39.176Z,1007.36
2019-03-25T07:53:32.007Z,1007.39
2019-03-25T07:54:31.922Z,1007.37
2019-03-25T07:56:24.749Z,1007.46
2019-03-25T07:57:24.682Z,1007.42
2019-03-25T07:59:20.075Z,1007.52
2019-03-25T08:00:17.434Z,1007.52
2019-03-25T08:02:10.230Z,1007.53
2019-03-25T08:03:10.126Z,1007.49
2019-03-25T08:05:02.944Z,1007.56
2019-03-25T08:06:02.833Z,1007.52
2019-03-25T08:07:55.652Z,1007.49
2019-03-25T08:09:03.835Z,1007.49
2019-03-25T08:10:48.427Z,1007.57
2019-03-25T08:11:48.333Z,1007.57
2019-03-25T08:13:41.091Z,1007.54
2019-03-25T08:14:41.145Z,1007.57
2019-03-25T08:16:33.926Z,1007.56
2019-03-25T08:17:33.744Z,1007.57
2019-03-25T08:19:26.503Z,1007.54
2019-03-25T08:20:26.438Z,1007.56
2019-03-25T08:22:19.236Z,1007.56
2019-03-25T08:23:19.126Z,1007.53
2019-03-25T08:25:11.966Z,1007.58
2019-03-25T08:26:11.878Z,1007.54
2019-03-25T08:28:04.686Z,1007.54
2019-03-25T08:29:04.630Z,1007.61
2019-03-25T08:30:57.467Z,1007.66
2019-03-25T08:31:58.972Z,1007.64
2019-03-25T08:33:50.049Z,1007.65
2019-03-25T08:34:49.996Z,1007.66
2019-03-25T08:36:42.864Z,1007.68
2019-03-25T08:37:42.738Z,1007.68
2019-03-25T08:39:35.851Z,1007.75
2019-03-25T08:40:35.471Z,1007.81
2019-03-25T08:42:28.274Z,1007.76
2019-03-25T08:43:28.191Z,1007.77
2019-03-25T08:45:20.990Z,1007.76
2019-03-25T08:46:20.951Z,1007.81
2019-03-25T08:48:13.944Z,1007.82
2019-03-25T08:49:13.863Z,1007.80
2019-03-25T08:51:06.700Z,1007.83
2019-03-25T08:52:06.557Z,1007.83
2019-03-25T08:53:59.335Z,1007.89
2019-03-25T08:54:59.259Z,1007.88
2019-03-25T08:56:52.039Z,1007.93
2019-03-25T08:57:52.260Z,1007.93
2019-03-25T08:59:44.713Z,1008.00
2019-03-25T09:00:44.658Z,1007.96
2019-03-25T09:02:37.546Z,1008.00
2019-03-25T09:03:37.411Z,1007.97
2019-03-25T09:05:30.209Z,1008.00
2019-03-25T09:06:30.090Z,1008.03
2019-03-25T09:08:22.947Z,1008.03
2019-03-25T09:09:22.860Z,1008.04
2019-03-25T09:11:15.716Z,1008.04
2019-03-25T09:12:15.620Z,1008.05
2019-03-25T09:14:08.454Z,1008.12
2019-03-25T09:15:08.319Z,1008.13
2019-03-25T09:17:01.173Z,1008.14
2019-03-25T09:18:01.047Z,1008.12
2019-03-25T09:19:53.878Z,1008.10
2019-03-25T09:20:53.797Z,1008.11
2019-03-25T09:22:47.166Z,1008.13
2019-03-25T09:23:47.059Z,1008.18
2019-03-25T09:25:39.880Z,1008.19
2019-03-25T09:26:39.771Z,1008.13
2019-03-25T09:28:32.565Z,1008.13
2019-03-25T09:29:32.479Z,1008.16
2019-03-25T09:31:36.135Z,1008.17
2019-03-25T09:32:25.165Z,1008.21
2019-03-25T09:34:17.973Z,1008.17
2019-03-25T09:35:17.918Z,1008.33
2019-03-25T09:37:10.699Z,1008.30
2019-03-25T09:38:10.586Z,1008.27
2019-03-25T09:40:03.378Z,1008.22
2019-03-25T09:41:03.316Z,1008.33
2019-03-25T09:42:56.103Z,1008.35
2019-03-25T09:43:56.040Z,1008.34
2019-03-25T09:45:48.802Z,1008.35
2019-03-25T09:46:48.755Z,1008.36
2019-03-25T09:48:41.511Z,1008.38
2019-03-25T09:49:41.446Z,1008.32
2019-03-25T09:51:34.295Z,1008.35
2019-03-25T09:52:38.661Z,1008.29
2019-03-25T09:54:27.030Z,1008.41
2019-03-25T09:55:26.932Z,1008.38
2019-03-25T09:57:19.791Z,1008.39
2019-03-25T09:58:19.655Z,1008.39
2019-03-25T10:00:12.506Z,1008.42
2019-03-25T10:01:12.388Z,1008.43
2019-03-25T10:03:05.285Z,1008.43
2019-03-25T10:04:05.190Z,1008.40
2019-03-25T10:05:58.490Z,1008.46
2019-03-25T10:06:58.396Z,1008.45
2019-03-25T10:08:51.188Z,1008.47
2019-03-25T10:09:51.097Z,1008.50
2019-03-25T10:11:44.726Z,1008.48
2019-03-25T10:12:44.647Z,1008.48
2019-03-25T10:14:37.425Z,1008.48
2019-03-25T10:15:37.338Z,1008.47
2019-03-25T10:17:30.128Z,1008.59
2019-03-25T10:18:30.045Z,1008.50
2019-03-25T10:20:22.878Z,1008.62
2019-03-25T10:21:22.804Z,1008.61
2019-03-25T10:23:15.583Z,1008.66
2019-03-25T10:24:15.541Z,1008.69
2019-03-25T10:26:08.342Z,1008.71
2019-03-25T10:27:08.211Z,1008.62
2019-03-25T10:29:01.002Z,1008.70
2019-03-25T10:30:00.919Z,1008.68
2019-03-25T10:31:53.809Z,1008.74
2019-03-25T10:32:53.643Z,1008.72
2019-03-25T10:34:46.437Z,1008.75
2019-03-25T10:35:46.378Z,1008.73
2019-03-25T10:37:39.172Z,1008.71
2019-03-25T10:38:39.059Z,1008.80
2019-03-25T10:40:31.881Z,1008.76
2019-03-25T10:41:31.799Z,1008.75
2019-03-25T10:43:24.573Z,1008.74
2019-03-25T10:44:24.508Z,1008.79
2019-03-25T10:46:17.280Z,1008.76
2019-03-25T10:47:17.225Z,1008.75
2019-03-25T10:49:10.025Z,1008.87
2019-03-25T10:50:09.950Z,1008.72
2019-03-25T10:52:02.722Z,1008.75
2019-03-25T10:53:02.686Z,1008.81
2019-03-25T10:55:55.365Z,1008.74
2019-03-25T10:57:48.214Z,1008.78
2019-03-25T10:58:50.721Z,1008.73
2019-03-25T11:00:40.947Z,1008.73
2019-03-25T11:01:40.870Z,1008.70
2019-03-25T11:03:33.651Z,1008.69
2019-03-25T11:04:33.584Z,1008.72
2019-03-25T11:06:26.513Z,1008.70
2019-03-25T11:07:27.336Z,1008.70
2019-03-25T11:09:19.091Z,1008.62
2019-03-25T11:10:19.009Z,1008.58
2019-03-25T11:12:11.828Z,1008.52
2019-03-25T11:13:11.746Z,1008.59
2019-03-25T11:15:04.511Z,1008.61
2019-03-25T11:16:04.486Z,1008.65
2019-03-25T11:17:57.273Z,1008.63
2019-03-25T11:18:57.178Z,1008.62
2019-03-25T11:20:50.235Z,1008.64
2019-03-25T11:21:49.895Z,1008.62
2019-03-25T11:23:42.685Z,1008.63
2019-03-25T11:24:42.606Z,1008.71
2019-03-25T11:26:35.399Z,1008.67
2019-03-25T11:27:35.378Z,1008.62
2019-03-25T11:29:28.138Z,1008.75
2019-03-25T11:30:27.985Z,1008.81
2019-03-25T11:32:20.779Z,1008.75
2019-03-25T11:33:20.725Z,1008.77
2019-03-25T11:35:13.486Z,1008.77
2019-03-25T11:36:13.413Z,1008.78
2019-03-25T11:38:06.193Z,1008.73
2019-03-25T11:39:06.122Z,1008.76
2019-03-25T11:40:58.899Z,1008.74
2019-03-25T11:41:58.831Z,1008.80
2019-03-25T11:43:51.723Z,1008.74
2019-03-25T11:44:51.648Z,1008.71
2019-03-25T11:46:44.443Z,1008.77
2019-03-25T11:47:44.391Z,1008.67
2019-03-25T11:49:37.145Z,1008.71
2019-03-25T11:50:37.067Z,1008.62
2019-03-25T11:52:29.816Z,1008.63
2019-03-25T11:53:29.764Z,1008.60
2019-03-25T11:55:22.539Z,1008.57
2019-03-25T11:56:22.452Z,1008.55
2019-03-25T11:58:15.257Z,1008.67
2019-03-25T11:59:18.903Z,1008.63
2019-03-25T12:01:07.907Z,1008.65
2019-03-25T12:02:17.088Z,1008.67
2019-03-25T12:04:00.656Z,1008.67
2019-03-25T12:05:00.565Z,1008.62
2019-03-25T12:06:53.368Z,1008.60
2019-03-25T12:07:53.264Z,1008.59
2019-03-25T12:09:46.123Z,1008.55
2019-03-25T12:10:45.979Z,1008.57
2019-03-25T12:12:38.769Z,1008.58
2019-03-25T12:13:38.749Z,1008.52
2019-03-25T12:15:31.538Z,1008.60
2019-03-25T12:16:31.553Z,1008.57
2019-03-25T12:18:24.177Z,1008.67
2019-03-25T12:19:24.098Z,1008.72
2019-03-25T12:21:16.953Z,1008.65
2019-03-25T12:22:16.901Z,1008.82
2019-03-25T12:24:09.683Z,1008.84
2019-03-25T12:25:09.574Z,1008.83
2019-03-25T12:27:02.357Z,1008.97
2019-03-25T12:28:02.439Z,1008.85
2019-03-25T12:29:55.161Z,1008.93
2019-03-25T12:30:55.009Z,1008.95
2019-03-25T12:32:47.786Z,1008.95
2019-03-25T12:33:47.725Z,1008.98
2019-03-25T12:35:40.511Z,1008.95
2019-03-25T12:36:40.437Z,1008.96
2019-03-25T12:38:33.276Z,1008.96
2019-03-25T12:39:33.148Z,1009.00
2019-03-25T12:41:25.902Z,1008.98
2019-03-25T12:42:25.942Z,1008.97
2019-03-25T12:44:18.693Z,1008.92
2019-03-25T12:45:18.574Z,1008.95
2019-03-25T12:47:11.369Z,1008.91
2019-03-25T12:48:11.310Z,1008.92
2019-03-25T12:50:04.068Z,1008.95
2019-03-25T12:51:03.996Z,1008.93
2019-03-25T12:52:56.870Z,1008.88
2019-03-25T12:53:56.776Z,1008.90
2019-03-25T12:55:49.623Z,1008.89
2019-03-25T12:56:49.467Z,1008.92
2019-03-25T12:58:42.252Z,1008.97
2019-03-25T12:59:42.196Z,1008.91
2019-03-25T13:01:35.055Z,1008.97
2019-03-25T13:02:34.872Z,1008.91
2019-03-25T13:04:27.702Z,1008.91
2019-03-25T13:05:27.638Z,1008.89
2019-03-25T13:07:20.433Z,1008.85
2019-03-25T13:08:20.338Z,1008.87
2019-03-25T13:10:13.174Z,1008.76
2019-03-25T13:11:13.095Z,1008.87
2019-03-25T13:13:05.849Z,1008.91
2019-03-25T13:14:05.766Z,1008.86
2019-03-25T13:15:58.609Z,1008.99
2019-03-25T13:16:58.599Z,1008.95
2019-03-25T13:18:51.644Z,1009.01
2019-03-25T13:19:51.273Z,1008.93
2019-03-25T13:21:44.056Z,1008.99
2019-03-25T13:22:43.986Z,1008.97
2019-03-25T13:24:36.755Z,1009.05
2019-03-25T13:25:39.308Z,1009.03
2019-03-25T13:27:29.491Z,1009.11
2019-03-25T13:28:29.485Z,1009.21
2019-03-25T13:30:22.220Z,1009.15
2019-03-25T13:31:22.137Z,1009.14
2019-03-25T13:33:14.974Z,1009.50
2019-03-25T13:34:14.901Z,1009.64
2019-03-25T13:36:07.741Z,1009.77
2019-03-25T13:37:07.628Z,1009.75
2019-03-25T13:39:00.416Z,1009.87
2019-03-25T13:40:00.360Z,1009.98
2019-03-25T13:41:53.157Z,1010.01
2019-03-25T13:42:53.050Z,1010.06
2019-03-25T13:44:45.837Z,1010.13
2019-03-25T13:45:45.740Z,1010.18
2019-03-25T13:47:38.560Z,1010.17
2019-03-25T13:48:38.444Z,1010.22
2019-03-25T13:50:31.265Z,1010.25
2019-03-25T13:51:31.176Z,1010.28
2019-03-25T13:53:24.023Z,1010.26
2019-03-25T13:54:23.957Z,1010.29
2019-03-25T13:56:16.750Z,1010.30
2019-03-25T13:57:16.629Z,1010.26
2019-03-25T13:59:09.506Z,1010.25
2019-03-25T14:00:09.430Z,1010.26
2019-03-25T14:02:02.260Z,1010.34
2019-03-25T14:03:02.186Z,1010.31
2019-03-25T14:04:54.945Z,1010.32
2019-03-25T14:05:54.851Z,1010.26
2019-03-25T14:07:47.743Z,1010.20
2019-03-25T14:08:47.607Z,1010.27
2019-03-25T14:10:40.359Z,1010.20
2019-03-25T14:11:40.278Z,1010.21
2019-03-25T14:13:33.083Z,1010.20
2019-03-25T14:14:32.978Z,1010.16
2019-03-25T14:16:25.972Z,1010.10
2019-03-25T14:17:25.838Z,1010.09
2019-03-25T14:19:18.789Z,1010.14
2019-03-25T14:20:18.653Z,1010.15
2019-03-25T14:22:11.713Z,1010.16
2019-03-25T14:23:11.360Z,1010.18
2019-03-25T14:25:04.236Z,1010.15
2019-03-25T14:26:04.090Z,1010.16
2019-03-25T14:27:59.134Z,1010.20
2019-03-25T14:28:56.923Z,1010.25
2019-03-25T14:30:49.815Z,1010.19
2019-03-25T14:31:49.660Z,1010.21
2019-03-25T14:33:42.632Z,1010.23
2019-03-25T14:34:45.067Z,1010.27
2019-03-25T14:36:35.598Z,1010.27
2019-03-25T14:37:35.380Z,1010.25
2019-03-25T14:39:28.411Z,1010.27
2019-03-25T14:40:28.260Z,1010.28
2019-03-25T14:42:21.466Z,1010.31
2019-03-25T14:43:21.205Z,1010.27
2019-03-25T14:45:14.156Z,1010.31
2019-03-25T14:46:14.064Z,1010.38
2019-03-25T14:48:06.954Z,1010.36
2019-03-25T14:49:06.839Z,1010.37
2019-03-25T14:50:59.739Z,1010.36
2019-03-25T14:51:59.649Z,1010.39
2019-03-25T14:53:52.601Z,1010.32
2019-03-25T14:54:52.447Z,1010.36
2019-03-25T14:56:45.687Z,1010.39
2019-03-25T14:57:45.551Z,1010.42
2019-03-25T14:59:38.393Z,1010.50
2019-03-25T15:00:38.326Z,1010.55
2019-03-25T15:02:31.133Z,1010.60
2019-03-25T15:03:31.084Z,1010.63
2019-03-25T15:05:24.445Z,1010.65
2019-03-25T15:06:24.314Z,1010.70
2019-03-25T15:08:17.165Z,1010.65
2019-03-25T15:09:17.105Z,1010.63
2019-03-25T15:11:10.475Z,1010.67
2019-03-25T15:12:10.309Z,1010.73
2019-03-25T15:14:03.059Z,1010.74
2019-03-25T15:15:03.063Z,1010.75
2019-03-25T15:16:55.984Z,1010.78
2019-03-25T15:17:55.772Z,1010.78
2019-03-25T15:19:48.584Z,1010.73
2019-03-25T15:20:48.488Z,1010.80
2019-03-25T15:22:41.392Z,1010.71
2019-03-25T15:23:41.238Z,1010.72
2019-03-25T15:25:34.228Z,1010.74
2019-03-25T15:26:34.146Z,1010.79
2019-03-25T15:28:26.940Z,1010.85
2019-03-25T15:29:26.910Z,1010.87
2019-03-25T15:31:19.744Z,1010.91
2019-03-25T15:32:19.645Z,1010.86
2019-03-25T15:34:12.579Z,1010.86
2019-03-25T15:35:12.491Z,1010.89
2019-03-25T15:37:05.550Z,1010.94
2019-03-25T15:38:05.322Z,1010.92
2019-03-25T15:39:58.121Z,1010.93
2019-03-25T15:40:58.139Z,1010.94
2019-03-25T15:42:51.069Z,1010.94
2019-03-25T15:43:51.180Z,1011.00
2019-03-25T15:45:44.022Z,1011.00
2019-03-25T15:46:43.847Z,1011.04
2019-03-25T15:48:36.732Z,1011.03
2019-03-25T15:49:36.699Z,1011.08
2019-03-25T15:51:29.476Z,1011.09
2019-03-25T15:52:29.613Z,1011.09
2019-03-25T15:54:22.221Z,1011.13
2019-03-25T15:55:22.155Z,1011.14
2019-03-25T15:57:15.575Z,1011.15
2019-03-25T15:58:25.610Z,1011.18
2019-03-25T16:00:08.298Z,1011.25
2019-03-25T16:01:08.228Z,1011.28
2019-03-25T16:03:00.968Z,1011.25
2019-03-25T16:04:00.896Z,1011.23
2019-03-25T16:05:53.938Z,1011.30
2019-03-25T16:06:53.846Z,1011.39
2019-03-25T16:08:46.684Z,1011.37
2019-03-25T16:09:46.543Z,1011.41
2019-03-25T16:11:39.274Z,1011.41
2019-03-25T16:12:39.320Z,1011.47
2019-03-25T16:14:32.279Z,1011.55
2019-03-25T16:15:32.201Z,1011.54
2019-03-25T16:17:25.163Z,1011.60
2019-03-25T16:18:25.073Z,1011.67
2019-03-25T16:20:17.819Z,1011.68
2019-03-25T16:21:17.891Z,1011.66
2019-03-25T16:23:10.584Z,1011.68
2019-03-25T16:24:10.480Z,1011.71
2019-03-25T16:26:03.332Z,1011.76
2019-03-25T16:27:03.201Z,1011.76
2019-03-25T16:28:56.176Z,1011.89
2019-03-25T16:29:56.232Z,1011.88
2019-03-25T16:31:48.891Z,1011.83
2019-03-25T16:32:48.753Z,1011.80
2019-03-25T16:34:42.133Z,1011.90
2019-03-25T16:35:42.035Z,1011.87
2019-03-25T16:37:35.037Z,1011.84
2019-03-25T16:38:34.918Z,1011.92
2019-03-25T16:40:27.733Z,1011.95
2019-03-25T16:41:27.619Z,1011.98
2019-03-25T16:43:20.437Z,1011.98
2019-03-25T16:44:20.321Z,1012.01
2019-03-25T16:46:13.123Z,1011.99
2019-03-25T16:47:13.035Z,1012.01
2019-03-25T16:49:05.929Z,1012.02
2019-03-25T16:50:05.868Z,1012.04
2019-03-25T16:51:58.756Z,1012.04
2019-03-25T16:52:58.598Z,1012.04
2019-03-25T16:54:52.427Z,1012.11
2019-03-25T16:55:52.153Z,1012.11
2019-03-25T16:57:45.248Z,1012.15
2019-03-25T16:58:45.023Z,1012.17
2019-03-25T17:00:37.928Z,1012.19
2019-03-25T17:01:37.780Z,1012.25
2019-03-25T17:03:30.732Z,1012.28
2019-03-25T17:04:30.480Z,1012.31
2019-03-25T17:06:23.566Z,1012.39
2019-03-25T17:07:23.474Z,1012.43
2019-03-25T17:09:16.433Z,1012.46
2019-03-25T17:10:16.203Z,1012.47
2019-03-25T17:12:09.269Z,1012.51
2019-03-25T17:13:09.182Z,1012.55
2019-03-25T17:15:02.121Z,1012.56
2019-03-25T17:16:02.039Z,1012.56
2019-03-25T17:17:55.101Z,1012.59
2019-03-25T17:18:54.950Z,1012.57
2019-03-25T17:20:47.733Z,1012.66
2019-03-25T17:21:57.643Z,1012.62
2019-03-25T17:23:40.692Z,1012.69
2019-03-25T17:24:40.455Z,1012.66
2019-03-25T17:26:41.972Z,1012.71
2019-03-25T17:27:33.242Z,1012.79
2019-03-25T17:29:26.055Z,1012.88